createdAt,value
2022-09-30T00:04:38.748Z,9.50
2022-09-30T00:14:42.849Z,9.30
2022-09-30T00:19:44.534Z,9.40
2022-09-30T00:24:46.746Z,9.40
2022-09-30T00:39:52.776Z,9.30
2022-09-30T00:45:06.737Z,9.30
2022-09-30T00:50:34.888Z,9.40
2022-09-30T00:56:00.945Z,9.30
2022-09-30T01:01:03.711Z,9.30
2022-09-30T01:06:05.868Z,10.40
2022-09-30T01:11:08.480Z,9.30
2022-09-30T01:16:37.319Z,9.00
2022-09-30T01:21:45.337Z,9.20
2022-09-30T01:27:21.666Z,9.20
2022-09-30T01:32:37.999Z,9.20
2022-09-30T01:37:52.999Z,9.20
2022-09-30T01:43:14.362Z,10.80
2022-09-30T01:48:26.087Z,9.00
2022-09-30T01:53:35.431Z,10.70
2022-09-30T02:03:47.259Z,8.60
2022-09-30T02:08:57.712Z,8.70
2022-09-30T02:14:23.600Z,11.90
2022-09-30T02:19:45.444Z,8.80
2022-09-30T02:24:52.935Z,8.80
2022-09-30T02:29:59.334Z,8.80
2022-09-30T02:35:06.504Z,8.80
2022-09-30T02:40:15.873Z,8.80
2022-09-30T02:45:22.009Z,8.80
2022-09-30T02:50:51.828Z,8.80
2022-09-30T02:55:59.489Z,8.80
2022-09-30T03:01:01.228Z,8.80
2022-09-30T03:06:03.639Z,9.00
2022-09-30T03:11:06.660Z,8.80
2022-09-30T03:16:36.307Z,8.80
2022-09-30T03:21:45.234Z,9.00
2022-09-30T03:27:01.658Z,11.40
2022-09-30T03:32:22.867Z,8.40
2022-09-30T03:37:27.885Z,8.20
2022-09-30T03:42:43.977Z,8.20
2022-09-30T03:47:50.167Z,8.50
2022-09-30T04:02:57.978Z,8.60
2022-09-30T04:18:05.147Z,8.40
2022-09-30T04:23:06.813Z,8.40
2022-09-30T04:38:14.485Z,8.40
2022-09-30T04:43:19.010Z,8.10
2022-09-30T04:48:22.651Z,8.10
2022-09-30T04:53:24.469Z,7.80
2022-09-30T05:13:38.365Z,8.20
2022-09-30T05:18:42.573Z,8.20
2022-09-30T05:23:45.112Z,8.50
2022-09-30T05:28:46.803Z,10.80
2022-09-30T05:33:48.574Z,8.50
2022-09-30T05:38:54.221Z,8.40
2022-09-30T05:48:58.872Z,8.30
2022-09-30T06:14:43.394Z,8.50
2022-09-30T06:24:50.387Z,8.60
2022-09-30T06:34:56.615Z,8.60
2022-09-30T06:39:58.313Z,9.10
2022-09-30T06:55:05.153Z,8.50
2022-09-30T07:00:07.775Z,8.60
2022-09-30T07:05:10.276Z,9.60
2022-09-30T07:10:11.959Z,8.80
2022-09-30T07:25:18.685Z,8.90
2022-09-30T07:30:27.321Z,9.20
2022-09-30T07:40:32.220Z,8.70
2022-09-30T07:45:37.055Z,9.20
2022-09-30T07:55:43.936Z,9.90
2022-09-30T08:00:50.284Z,10.50
2022-09-30T08:05:51.954Z,10.10
2022-09-30T08:10:53.665Z,10.90
2022-09-30T08:15:55.419Z,10.80
2022-09-30T08:20:57.647Z,12.20
2022-09-30T08:26:10.907Z,11.20
2022-09-30T08:31:18.327Z,11.80
2022-09-30T08:36:22.780Z,12.50
2022-09-30T08:41:51.557Z,12.30
2022-09-30T08:47:14.914Z,12.20
2022-09-30T08:52:48.231Z,12.60
2022-09-30T08:57:52.862Z,14.20
2022-09-30T09:08:50.068Z,13.30
2022-09-30T09:13:58.672Z,13.50
2022-09-30T09:19:24.533Z,13.60
2022-09-30T09:24:30.226Z,14.30
2022-09-30T09:29:34.826Z,14.30
2022-09-30T09:34:39.574Z,15.00
2022-09-30T09:40:04.414Z,15.30
2022-09-30T09:45:23.604Z,15.50
2022-09-30T09:50:41.942Z,16.20
2022-09-30T09:55:44.327Z,16.60
2022-09-30T10:00:46.052Z,16.40
2022-09-30T10:05:59.749Z,16.30
2022-09-30T10:11:05.067Z,15.90
2022-09-30T10:16:07.128Z,16.60
2022-09-30T10:21:23.793Z,17.00
2022-09-30T10:31:41.555Z,16.50
2022-09-30T10:36:44.590Z,17.60
2022-09-30T10:42:10.850Z,18.00
2022-09-30T10:47:23.318Z,18.00
2022-09-30T10:52:28.724Z,18.60
2022-09-30T10:57:37.957Z,18.20
2022-09-30T11:02:48.271Z,18.80
2022-09-30T11:08:13.395Z,19.50
2022-09-30T11:13:28.741Z,20.00
2022-09-30T11:18:38.089Z,20.80
2022-09-30T11:24:02.497Z,20.70
2022-09-30T11:29:38.034Z,21.30
2022-09-30T11:35:07.161Z,21.40
2022-09-30T11:40:34.545Z,21.60
2022-09-30T11:46:18.073Z,21.90
2022-09-30T11:51:25.377Z,22.00
2022-09-30T11:56:40.705Z,22.20
2022-09-30T12:01:46.318Z,22.90
2022-09-30T12:06:58.266Z,22.70
2022-09-30T12:12:08.600Z,22.70
2022-09-30T12:17:31.287Z,23.10
2022-09-30T12:22:40.106Z,22.40
2022-09-30T12:27:49.073Z,22.80
2022-09-30T12:33:22.816Z,23.20
2022-09-30T12:38:33.758Z,23.60
2022-09-30T12:44:00.556Z,24.60
2022-09-30T12:49:09.699Z,23.70
2022-09-30T12:54:17.491Z,24.20
2022-09-30T12:59:26.707Z,24.90
2022-09-30T13:04:35.891Z,24.90
2022-09-30T13:10:22.086Z,25.30
2022-09-30T13:15:29.652Z,25.30
2022-09-30T13:20:56.471Z,25.70
2022-09-30T13:25:58.181Z,25.50
2022-09-30T13:31:26.157Z,24.00
2022-09-30T13:36:40.687Z,22.00
2022-09-30T13:41:44.682Z,20.10
2022-09-30T13:46:51.217Z,20.00
2022-09-30T13:51:55.075Z,19.30
2022-09-30T13:56:57.008Z,19.30
2022-09-30T14:02:07.611Z,18.90
2022-09-30T14:07:27.791Z,18.60
2022-09-30T14:12:44.914Z,18.40
2022-09-30T14:17:52.443Z,18.20
2022-09-30T14:22:54.221Z,18.20
2022-09-30T14:28:04.302Z,17.90
2022-09-30T14:33:24.288Z,17.70
2022-09-30T14:38:29.522Z,17.40
2022-09-30T14:43:38.898Z,17.30
2022-09-30T14:48:45.280Z,17.10
2022-09-30T14:53:58.148Z,17.10
2022-09-30T14:59:01.028Z,18.20
2022-09-30T15:04:12.360Z,17.50
2022-09-30T15:09:25.979Z,17.30
2022-09-30T15:14:27.690Z,17.30
2022-09-30T15:19:43.358Z,17.10
2022-09-30T15:24:47.617Z,17.10
2022-09-30T15:30:05.093Z,16.90
2022-09-30T15:35:11.928Z,17.80
2022-09-30T15:40:34.290Z,20.20
2022-09-30T15:45:43.277Z,19.70
2022-09-30T15:50:50.377Z,18.90
2022-09-30T15:55:57.062Z,17.40
2022-09-30T16:01:16.171Z,16.60
2022-09-30T16:06:38.202Z,16.50
2022-09-30T16:11:43.366Z,16.40
2022-09-30T16:16:56.228Z,16.30
2022-09-30T16:21:59.400Z,16.20
2022-09-30T16:27:29.191Z,15.90
2022-09-30T16:32:36.809Z,15.60
2022-09-30T16:37:42.856Z,15.60
2022-09-30T16:42:44.543Z,15.30
2022-09-30T16:47:46.274Z,15.10
2022-09-30T16:52:48.018Z,14.70
2022-09-30T16:57:50.284Z,14.60
2022-09-30T17:02:52.352Z,14.40
2022-09-30T17:13:00.047Z,13.90
2022-09-30T17:18:07.235Z,15.90
2022-09-30T17:23:08.952Z,13.50
2022-09-30T17:28:11.906Z,14.40
2022-09-30T17:38:15.902Z,13.10
2022-09-30T17:43:17.632Z,13.20
2022-09-30T17:48:19.435Z,15.30
2022-09-30T17:58:23.392Z,12.70
2022-09-30T18:13:30.290Z,12.20
2022-09-30T18:18:34.205Z,12.20
2022-09-30T18:23:35.905Z,12.00
2022-09-30T18:28:37.639Z,11.50
2022-09-30T18:38:41.464Z,11.70
2022-09-30T18:43:45.207Z,11.70
2022-09-30T18:48:50.003Z,11.60
2022-09-30T18:53:57.510Z,11.60
2022-09-30T18:59:04.515Z,11.50
2022-09-30T19:09:09.038Z,11.40
2022-09-30T19:14:14.404Z,11.40
2022-09-30T19:49:49.468Z,10.70
2022-09-30T19:54:51.817Z,11.90
2022-09-30T20:20:36.254Z,10.30
2022-09-30T20:25:38.271Z,10.30
2022-09-30T20:30:45.347Z,10.20
2022-09-30T20:40:57.079Z,10.10
2022-09-30T20:46:05.425Z,10.10
2022-09-30T20:51:19.868Z,10.00
2022-09-30T20:56:22.933Z,10.00
2022-09-30T21:06:28.593Z,9.90
2022-09-30T21:11:30.767Z,10.70
2022-09-30T21:16:33.151Z,9.80
2022-09-30T21:36:42.074Z,9.80
2022-09-30T21:46:48.715Z,9.60
2022-09-30T21:51:52.920Z,10.20
2022-09-30T21:56:54.663Z,12.10
2022-09-30T22:01:56.593Z,9.60
2022-09-30T22:06:58.257Z,9.50
2022-09-30T22:22:12.450Z,9.40
2022-09-30T22:27:14.632Z,9.10
2022-09-30T22:37:36.954Z,9.30
2022-09-30T22:57:45.282Z,9.20
2022-09-30T23:07:52.991Z,9.20
2022-09-30T23:17:56.683Z,9.00
2022-09-30T23:38:05.832Z,8.70
